createdAt,value
2023-01-18T00:04:58.376Z,23.30
2023-01-18T00:10:14.061Z,20.95
2023-01-18T00:15:28.998Z,20.95
2023-01-18T00:20:44.009Z,22.17
2023-01-18T00:25:59.330Z,20.15
2023-01-18T00:31:15.465Z,20.67
2023-01-18T00:36:30.982Z,19.70
2023-01-18T00:41:45.982Z,19.55
2023-01-18T00:47:01.008Z,18.42
2023-01-18T00:52:16.328Z,18.58
2023-01-18T00:57:32.011Z,17.48
2023-01-18T01:02:47.067Z,17.02
2023-01-18T01:08:02.027Z,16.48
2023-01-18T01:13:17.001Z,15.18
2023-01-18T01:18:32.030Z,15.65
2023-01-18T01:23:47.006Z,16.00
2023-01-18T01:29:02.313Z,14.43
2023-01-18T01:34:18.036Z,15.57
2023-01-18T01:39:33.021Z,14.80
2023-01-18T01:44:48.107Z,14.27
2023-01-18T01:50:03.125Z,15.38
2023-01-18T01:55:18.048Z,15.10
2023-01-18T02:00:33.371Z,14.55
2023-01-18T02:05:49.405Z,15.13
2023-01-18T02:11:05.034Z,14.88
2023-01-18T02:16:20.331Z,15.00
2023-01-18T02:21:36.056Z,14.18
2023-01-18T02:26:51.004Z,13.20
2023-01-18T02:32:06.073Z,14.82
2023-01-18T02:37:21.057Z,14.95
2023-01-18T02:42:36.002Z,13.40
2023-01-18T02:47:51.025Z,12.95
2023-01-18T02:53:06.361Z,11.90
2023-01-18T02:58:21.725Z,13.43
2023-01-18T03:03:36.992Z,12.32
2023-01-18T03:08:52.080Z,13.63
2023-01-18T03:14:07.032Z,11.25
2023-01-18T03:19:22.062Z,11.48
2023-01-18T03:24:37.370Z,10.40
2023-01-18T03:29:54.084Z,11.18
2023-01-18T03:35:10.086Z,9.35
2023-01-18T03:40:25.219Z,10.68
2023-01-18T03:45:40.372Z,9.23
2023-01-18T03:50:56.029Z,10.02
2023-01-18T03:56:11.296Z,10.45
2023-01-18T04:01:27.455Z,8.75
2023-01-18T04:06:43.340Z,9.52
2023-01-18T04:11:58.839Z,8.80
2023-01-18T04:17:14.032Z,8.75
2023-01-18T04:22:29.216Z,8.93
2023-01-18T04:27:44.028Z,7.93
2023-01-18T04:32:59.296Z,7.97
2023-01-18T04:38:15.007Z,8.57
2023-01-18T04:43:30.151Z,7.95
2023-01-18T04:48:44.990Z,7.38
2023-01-18T04:54:00.051Z,7.68
2023-01-18T04:59:15.036Z,7.25
2023-01-18T05:04:29.992Z,8.80
2023-01-18T05:09:45.030Z,9.30
2023-01-18T05:14:59.987Z,8.32
2023-01-18T05:20:15.354Z,8.63
2023-01-18T05:25:31.000Z,7.07
2023-01-18T05:30:46.063Z,7.80
2023-01-18T05:36:01.043Z,8.40
2023-01-18T05:41:16.051Z,8.20
2023-01-18T05:46:32.057Z,7.65
2023-01-18T05:51:47.003Z,8.32
2023-01-18T05:57:02.087Z,7.43
2023-01-18T06:02:17.110Z,7.07
2023-01-18T06:07:31.966Z,6.97
2023-01-18T06:12:47.370Z,7.63
2023-01-18T06:18:03.053Z,6.70
2023-01-18T06:23:18.045Z,7.07
2023-01-18T06:28:33.580Z,7.07
2023-01-18T06:33:49.013Z,6.75
2023-01-18T06:39:03.992Z,6.43
2023-01-18T06:44:19.000Z,6.35
2023-01-18T06:49:34.033Z,4.93
2023-01-18T06:54:49.099Z,5.82
2023-01-18T07:00:05.121Z,5.68
2023-01-18T07:05:20.356Z,5.38
2023-01-18T07:10:36.062Z,4.85
2023-01-18T07:15:51.384Z,6.90
2023-01-18T07:21:06.871Z,6.18
2023-01-18T07:26:22.051Z,6.70
2023-01-18T07:31:37.259Z,6.00
2023-01-18T07:36:52.053Z,5.95
2023-01-18T07:42:07.072Z,6.28
2023-01-18T07:47:22.392Z,6.55
2023-01-18T07:52:38.067Z,6.25
2023-01-18T07:57:53.091Z,49.15
2023-01-18T08:03:08.210Z,51.40
2023-01-18T08:08:23.052Z,52.95
2023-01-18T08:13:38.359Z,48.28
2023-01-18T08:18:54.022Z,46.78
2023-01-18T08:24:09.368Z,45.13
2023-01-18T08:29:25.059Z,43.20
2023-01-18T08:34:40.045Z,41.42
2023-01-18T08:39:55.307Z,39.42
2023-01-18T08:45:11.345Z,39.63
2023-01-18T08:50:27.301Z,35.92
2023-01-18T08:55:43.139Z,35.10
2023-01-18T09:00:58.095Z,32.55
2023-01-18T09:06:13.299Z,28.55
2023-01-18T09:11:29.028Z,30.73
2023-01-18T09:16:44.125Z,27.58
2023-01-18T09:21:59.111Z,26.58
2023-01-18T09:27:14.307Z,25.00
2023-01-18T09:32:30.019Z,21.70
2023-01-18T09:37:45.138Z,20.98
2023-01-18T09:43:00.473Z,22.13
2023-01-18T09:48:16.039Z,23.00
2023-01-18T09:53:31.044Z,20.65
2023-01-18T09:58:46.057Z,18.65
2023-01-18T10:04:00.843Z,17.25
2023-01-18T10:09:16.124Z,16.75
2023-01-18T10:14:31.074Z,16.08
2023-01-18T10:19:46.397Z,15.65
2023-01-18T10:25:02.088Z,17.05
2023-01-18T10:30:17.069Z,16.08
2023-01-18T10:35:32.089Z,13.63
2023-01-18T10:40:47.024Z,12.98
2023-01-18T10:46:02.093Z,12.93
2023-01-18T10:51:16.821Z,13.52
2023-01-18T10:56:32.127Z,11.05
2023-01-18T11:01:47.260Z,11.27
2023-01-18T11:07:03.022Z,11.40
2023-01-18T11:12:17.993Z,8.82
2023-01-18T11:17:33.333Z,10.23
2023-01-18T11:22:49.027Z,9.80
2023-01-18T11:28:04.097Z,8.80
2023-01-18T11:33:19.014Z,7.90
2023-01-18T11:38:34.097Z,8.52
2023-01-18T11:43:49.031Z,7.72
2023-01-18T11:49:04.022Z,6.78
2023-01-18T11:54:19.351Z,6.57
2023-01-18T11:59:35.099Z,6.45
2023-01-18T12:04:50.055Z,7.30
2023-01-18T12:10:05.327Z,6.47
2023-01-18T12:15:21.092Z,6.45
2023-01-18T12:20:36.438Z,6.20
2023-01-18T12:26:03.132Z,5.82
2023-01-18T12:31:26.324Z,5.75
2023-01-18T12:36:42.031Z,4.95
2023-01-18T12:41:57.349Z,5.53
2023-01-18T12:47:13.027Z,4.60
2023-01-18T12:52:28.077Z,4.68
2023-01-18T12:57:44.284Z,4.63
2023-01-18T13:03:00.803Z,4.30
2023-01-18T13:08:16.071Z,4.05
2023-01-18T13:13:31.032Z,4.53
2023-01-18T13:18:45.845Z,4.22
2023-01-18T13:24:01.092Z,3.30
2023-01-18T13:29:16.404Z,3.78
2023-01-18T13:34:32.385Z,3.70
2023-01-18T13:39:47.852Z,4.20
2023-01-18T13:45:02.856Z,3.65
2023-01-18T13:50:18.033Z,3.35
2023-01-18T13:55:33.020Z,3.50
2023-01-18T14:00:48.061Z,3.20
2023-01-18T14:06:03.123Z,2.95
2023-01-18T14:11:18.058Z,2.97
2023-01-18T14:16:33.075Z,3.05
2023-01-18T14:21:48.101Z,3.45
2023-01-18T14:27:03.491Z,2.90
2023-01-18T14:32:19.094Z,2.67
2023-01-18T14:37:34.124Z,1.92
2023-01-18T14:42:49.113Z,3.00
2023-01-18T14:48:04.035Z,2.33
2023-01-18T14:53:19.151Z,2.00
2023-01-18T14:58:34.350Z,2.33
2023-01-18T15:03:50.343Z,2.58
2023-01-18T15:09:06.111Z,2.00
2023-01-18T15:14:21.073Z,2.42
2023-01-18T15:19:36.079Z,2.00
2023-01-18T15:24:50.982Z,2.13
2023-01-18T15:30:06.131Z,2.50
2023-01-18T15:35:21.075Z,2.20
2023-01-18T15:40:36.084Z,1.70
2023-01-18T15:45:51.189Z,2.40
2023-01-18T15:51:06.091Z,1.90
2023-01-18T15:56:21.101Z,2.20
2023-01-18T16:01:36.212Z,2.15
2023-01-18T16:06:51.137Z,3.05
2023-01-18T16:12:06.131Z,7.78
2023-01-18T16:17:21.150Z,13.23
2023-01-18T16:22:36.142Z,18.00
2023-01-18T16:27:51.117Z,20.75
2023-01-18T16:33:06.125Z,22.90
2023-01-18T16:38:21.125Z,22.95
2023-01-18T16:43:36.081Z,22.63
2023-01-18T16:48:51.054Z,23.70
2023-01-18T16:54:06.137Z,25.63
2023-01-18T16:59:21.151Z,32.28
2023-01-18T17:04:36.061Z,40.95
2023-01-18T17:09:53.229Z,48.90
2023-01-18T17:15:09.133Z,62.50
2023-01-18T17:20:23.893Z,71.00
2023-01-18T17:25:39.060Z,74.35
2023-01-18T17:30:54.151Z,81.05
2023-01-18T17:36:09.438Z,82.22
2023-01-18T17:41:27.327Z,85.03
2023-01-18T17:46:42.873Z,86.78
2023-01-18T17:51:58.074Z,85.20
2023-01-18T17:57:13.162Z,84.13
2023-01-18T18:02:28.107Z,87.65
2023-01-18T18:07:43.047Z,86.68
2023-01-18T18:12:58.472Z,80.82
2023-01-18T18:18:22.768Z,85.57
2023-01-18T18:23:47.477Z,80.30
2023-01-18T18:29:03.229Z,76.88
2023-01-18T18:34:17.893Z,76.63
2023-01-18T18:39:33.412Z,72.50
2023-01-18T18:44:49.376Z,69.55
2023-01-18T18:50:05.083Z,68.50
2023-01-18T18:55:20.217Z,66.57
2023-01-18T19:00:35.219Z,61.78
2023-01-18T19:05:50.144Z,59.17
2023-01-18T19:11:05.126Z,58.17
2023-01-18T19:16:20.445Z,52.92
2023-01-18T19:21:36.060Z,49.42
2023-01-18T19:26:51.118Z,48.00
2023-01-18T19:32:06.081Z,43.33
2023-01-18T19:37:20.882Z,40.92
2023-01-18T19:42:36.098Z,40.55
2023-01-18T19:47:51.092Z,36.47
2023-01-18T19:53:06.112Z,36.55
2023-01-18T19:58:20.935Z,31.00
2023-01-18T20:03:36.443Z,26.33
2023-01-18T20:08:52.550Z,19.33
2023-01-18T20:14:07.869Z,18.25
2023-01-18T20:19:23.091Z,16.80
2023-01-18T20:24:38.164Z,15.43
2023-01-18T20:29:53.088Z,13.05
2023-01-18T20:35:08.152Z,12.77
2023-01-18T20:40:23.150Z,13.25
2023-01-18T20:45:38.166Z,11.27
2023-01-18T20:50:53.113Z,11.63
2023-01-18T20:56:14.183Z,11.13
2023-01-18T21:01:38.167Z,10.65
2023-01-18T21:06:53.482Z,9.85
2023-01-18T21:12:09.128Z,9.30
2023-01-18T21:17:24.138Z,8.82
2023-01-18T21:22:39.066Z,7.63
2023-01-18T21:27:54.168Z,8.32
2023-01-18T21:33:09.392Z,8.15
2023-01-18T21:38:25.080Z,7.45
2023-01-18T21:43:40.095Z,6.32
2023-01-18T21:55:07.161Z,6.05
2023-01-18T22:00:22.484Z,6.13
2023-01-18T22:05:40.938Z,5.75
2023-01-18T22:10:57.695Z,5.70
2023-01-18T22:16:13.842Z,5.32
2023-01-18T22:21:29.137Z,5.45
2023-01-18T22:26:44.132Z,5.00
2023-01-18T22:31:58.848Z,4.70
2023-01-18T22:37:14.120Z,5.03
2023-01-18T22:42:29.113Z,4.20
2023-01-18T22:47:44.604Z,4.55
2023-01-18T22:53:00.107Z,4.40
2023-01-18T22:58:15.074Z,4.07
2023-01-18T23:03:30.127Z,4.45
2023-01-18T23:08:45.125Z,4.93
2023-01-18T23:14:00.467Z,4.63
2023-01-18T23:19:16.064Z,4.50
2023-01-18T23:24:31.061Z,4.65
2023-01-18T23:29:46.187Z,3.92
2023-01-18T23:35:01.127Z,4.40
2023-01-18T23:40:16.432Z,4.00
2023-01-18T23:45:32.141Z,3.88
2023-01-18T23:50:47.451Z,4.20
2023-01-18T23:56:03.437Z,4.47
